sensor_id;sensor_type;location;lat;lon;timestamp;pressure;altitude;pressure_sealevel;temperature;humidity
77147;BME280;66121;52.584;9.694;2023-12-20T00:02:22;100624.09;;;5.61;100.00
77147;BME280;66121;52.584;9.694;2023-12-20T00:04:47;100615.78;;;5.57;100.00
77147;BME280;66121;52.584;9.694;2023-12-20T00:07:12;100626.34;;;5.59;100.00
77147;BME280;66121;52.584;9.694;2023-12-20T00:09:38;100629.88;;;5.59;100.00
77147;BME280;66121;52.584;9.694;2023-12-20T00:12:03;100609.50;;;5.57;100.00
77147;BME280;66121;52.584;9.694;2023-12-20T00:14:28;100610.66;;;5.56;100.00
77147;BME280;66121;52.584;9.694;2023-12-20T00:16:54;100610.13;;;5.50;100.00
77147;BME280;66121;52.584;9.694;2023-12-20T00:19:19;100607.63;;;5.45;100.00
77147;BME280;66121;52.584;9.694;2023-12-20T00:21:45;100608.06;;;5.47;100.00
77147;BME280;66121;52.584;9.694;2023-12-20T00:24:10;100606.72;;;5.41;100.00
77147;BME280;66121;52.584;9.694;2023-12-20T00:26:35;100594.03;;;5.33;100.00
77147;BME280;66121;52.584;9.694;2023-12-20T00:29:01;100593.75;;;5.38;100.00
77147;BME280;66121;52.584;9.694;2023-12-20T00:31:26;100605.19;;;5.56;100.00
77147;BME280;66121;52.584;9.694;2023-12-20T00:33:51;100588.72;;;5.40;100.00
77147;BME280;66121;52.584;9.694;2023-12-20T00:36:17;100595.53;;;5.46;100.00
77147;BME280;66121;52.584;9.694;2023-12-20T00:38:42;100587.13;;;5.39;100.00
77147;BME280;66121;52.584;9.694;2023-12-20T00:41:07;100590.31;;;5.41;100.00
77147;BME280;66121;52.584;9.694;2023-12-20T00:43:33;100579.84;;;5.43;100.00
77147;BME280;66121;52.584;9.694;2023-12-20T00:45:58;100588.66;;;5.52;100.00
77147;BME280;66121;52.584;9.694;2023-12-20T00:48:25;100553.97;;;5.41;100.00
77147;BME280;66121;52.584;9.694;2023-12-20T00:50:52;100577.44;;;5.42;100.00
77147;BME280;66121;52.584;9.694;2023-12-20T00:53:17;100580.53;;;5.40;100.00
77147;BME280;66121;52.584;9.694;2023-12-20T00:55:42;100582.09;;;5.41;100.00
77147;BME280;66121;52.584;9.694;2023-12-20T00:58:09;100585.88;;;5.37;100.00
77147;BME280;66121;52.584;9.694;2023-12-20T01:00:34;100583.59;;;5.39;100.00
77147;BME280;66121;52.584;9.694;2023-12-20T01:03:00;100592.16;;;5.37;100.00
77147;BME280;66121;52.584;9.694;2023-12-20T01:05:25;100574.88;;;5.33;100.00
77147;BME280;66121;52.584;9.694;2023-12-20T01:07:50;100575.47;;;5.27;100.00
77147;BME280;66121;52.584;9.694;2023-12-20T01:10:16;100568.66;;;5.20;100.00
77147;BME280;66121;52.584;9.694;2023-12-20T01:12:43;100566.00;;;5.24;100.00
77147;BME280;66121;52.584;9.694;2023-12-20T01:15:08;100565.56;;;5.22;100.00
77147;BME280;66121;52.584;9.694;2023-12-20T01:17:34;100565.94;;;5.20;100.00
77147;BME280;66121;52.584;9.694;2023-12-20T01:19:59;100563.19;;;5.20;100.00
77147;BME280;66121;52.584;9.694;2023-12-20T01:22:24;100581.03;;;5.30;100.00
77147;BME280;66121;52.584;9.694;2023-12-20T01:24:50;100577.13;;;5.31;100.00
77147;BME280;66121;52.584;9.694;2023-12-20T01:27:15;100584.50;;;5.43;100.00
77147;BME280;66121;52.584;9.694;2023-12-20T01:29:40;100580.53;;;5.40;100.00
77147;BME280;66121;52.584;9.694;2023-12-20T01:32:06;100572.66;;;5.23;100.00
77147;BME280;66121;52.584;9.694;2023-12-20T01:34:31;100567.69;;;5.13;100.00
77147;BME280;66121;52.584;9.694;2023-12-20T01:36:56;100567.03;;;5.04;100.00
77147;BME280;66121;52.584;9.694;2023-12-20T01:39:22;100563.91;;;4.90;100.00
77147;BME280;66121;52.584;9.694;2023-12-20T01:41:47;100554.81;;;4.86;100.00
77147;BME280;66121;52.584;9.694;2023-12-20T01:44:12;100551.41;;;4.77;100.00
77147;BME280;66121;52.584;9.694;2023-12-20T01:46:38;100568.72;;;4.81;100.00
77147;BME280;66121;52.584;9.694;2023-12-20T01:49:03;100559.81;;;4.84;100.00
77147;BME280;66121;52.584;9.694;2023-12-20T01:51:29;100562.09;;;4.82;100.00
77147;BME280;66121;52.584;9.694;2023-12-20T01:53:57;100567.00;;;4.76;100.00
77147;BME280;66121;52.584;9.694;2023-12-20T01:56:23;100561.22;;;4.78;100.00
77147;BME280;66121;52.584;9.694;2023-12-20T01:58:48;100564.38;;;4.80;100.00
77147;BME280;66121;52.584;9.694;2023-12-20T02:01:14;100567.31;;;4.87;100.00
77147;BME280;66121;52.584;9.694;2023-12-20T02:03:41;100539.53;;;4.85;100.00
77147;BME280;66121;52.584;9.694;2023-12-20T02:06:07;100558.06;;;4.91;100.00
77147;BME280;66121;52.584;9.694;2023-12-20T02:08:34;100554.44;;;4.87;100.00
77147;BME280;66121;52.584;9.694;2023-12-20T02:10:59;100552.97;;;4.90;100.00
77147;BME280;66121;52.584;9.694;2023-12-20T02:13:25;100546.56;;;4.98;100.00
77147;BME280;66121;52.584;9.694;2023-12-20T02:15:51;100538.78;;;5.00;100.00
77147;BME280;66121;52.584;9.694;2023-12-20T02:18:17;100524.00;;;5.01;100.00
77147;BME280;66121;52.584;9.694;2023-12-20T02:20:42;100532.09;;;4.97;100.00
77147;BME280;66121;52.584;9.694;2023-12-20T02:23:07;100523.78;;;4.94;100.00
77147;BME280;66121;52.584;9.694;2023-12-20T02:25:33;100523.34;;;4.92;100.00
77147;BME280;66121;52.584;9.694;2023-12-20T02:27:58;100526.97;;;4.96;100.00
77147;BME280;66121;52.584;9.694;2023-12-20T02:30:23;100523.59;;;4.87;100.00
77147;BME280;66121;52.584;9.694;2023-12-20T02:32:49;100526.50;;;4.94;100.00
77147;BME280;66121;52.584;9.694;2023-12-20T02:35:15;100523.00;;;4.93;100.00
77147;BME280;66121;52.584;9.694;2023-12-20T02:37:40;100510.09;;;4.94;100.00
77147;BME280;66121;52.584;9.694;2023-12-20T02:40:06;100525.38;;;4.95;100.00
77147;BME280;66121;52.584;9.694;2023-12-20T02:42:31;100515.78;;;5.01;100.00
77147;BME280;66121;52.584;9.694;2023-12-20T02:44:58;100511.56;;;5.03;100.00
77147;BME280;66121;52.584;9.694;2023-12-20T02:47:23;100517.53;;;4.93;100.00
77147;BME280;66121;52.584;9.694;2023-12-20T02:49:49;100508.59;;;4.81;100.00
77147;BME280;66121;52.584;9.694;2023-12-20T02:52:14;100518.38;;;4.82;100.00
77147;BME280;66121;52.584;9.694;2023-12-20T02:54:39;100519.41;;;4.77;100.00
77147;BME280;66121;52.584;9.694;2023-12-20T02:57:05;100511.38;;;4.69;100.00
77147;BME280;66121;52.584;9.694;2023-12-20T02:59:31;100495.91;;;4.61;100.00
77147;BME280;66121;52.584;9.694;2023-12-20T03:01:56;100496.72;;;4.61;100.00
77147;BME280;66121;52.584;9.694;2023-12-20T03:04:21;100486.56;;;4.62;100.00
77147;BME280;66121;52.584;9.694;2023-12-20T03:06:46;100481.22;;;4.65;100.00
77147;BME280;66121;52.584;9.694;2023-12-20T03:09:12;100478.63;;;4.56;100.00
77147;BME280;66121;52.584;9.694;2023-12-20T03:11:37;100482.16;;;4.57;100.00
77147;BME280;66121;52.584;9.694;2023-12-20T03:14:02;100463.03;;;4.57;100.00
77147;BME280;66121;52.584;9.694;2023-12-20T03:16:28;100465.31;;;4.55;100.00
77147;BME280;66121;52.584;9.694;2023-12-20T03:18:53;100470.88;;;4.59;100.00
77147;BME280;66121;52.584;9.694;2023-12-20T03:21:18;100461.34;;;4.52;100.00
77147;BME280;66121;52.584;9.694;2023-12-20T03:23:44;100461.69;;;4.51;100.00
77147;BME280;66121;52.584;9.694;2023-12-20T03:26:09;100455.88;;;4.52;100.00
77147;BME280;66121;52.584;9.694;2023-12-20T03:28:36;100450.41;;;4.52;100.00
77147;BME280;66121;52.584;9.694;2023-12-20T03:31:01;100441.41;;;4.52;100.00
77147;BME280;66121;52.584;9.694;2023-12-20T03:33:27;100435.06;;;4.48;100.00
77147;BME280;66121;52.584;9.694;2023-12-20T03:35:52;100439.84;;;4.51;100.00
77147;BME280;66121;52.584;9.694;2023-12-20T03:38:18;100442.56;;;4.51;100.00
77147;BME280;66121;52.584;9.694;2023-12-20T03:40:43;100438.59;;;4.48;100.00
77147;BME280;66121;52.584;9.694;2023-12-20T03:43:08;100438.03;;;4.43;100.00
77147;BME280;66121;52.584;9.694;2023-12-20T03:45:34;100433.38;;;4.43;100.00
77147;BME280;66121;52.584;9.694;2023-12-20T03:47:59;100438.59;;;4.48;100.00
77147;BME280;66121;52.584;9.694;2023-12-20T03:50:25;100442.91;;;4.49;100.00
77147;BME280;66121;52.584;9.694;2023-12-20T03:52:50;100427.56;;;4.45;100.00
77147;BME280;66121;52.584;9.694;2023-12-20T03:55:16;100433.31;;;4.55;100.00
77147;BME280;66121;52.584;9.694;2023-12-20T03:57:41;100426.13;;;4.63;100.00
77147;BME280;66121;52.584;9.694;2023-12-20T04:00:07;100424.25;;;4.67;100.00
77147;BME280;66121;52.584;9.694;2023-12-20T04:02:36;100432.81;;;4.66;100.00
77147;BME280;66121;52.584;9.694;2023-12-20T04:05:01;100424.50;;;4.62;100.00
77147;BME280;66121;52.584;9.694;2023-12-20T04:07:26;100428.06;;;4.63;100.00
77147;BME280;66121;52.584;9.694;2023-12-20T04:09:52;100425.06;;;4.68;100.00
77147;BME280;66121;52.584;9.694;2023-12-20T04:12:17;100430.16;;;4.69;100.00
77147;BME280;66121;52.584;9.694;2023-12-20T04:14:42;100423.38;;;4.63;100.00
77147;BME280;66121;52.584;9.694;2023-12-20T04:17:07;100429.53;;;4.60;100.00
77147;BME280;66121;52.584;9.694;2023-12-20T04:19:33;100422.69;;;4.66;100.00
77147;BME280;66121;52.584;9.694;2023-12-20T04:21:58;100396.31;;;4.74;100.00
77147;BME280;66121;52.584;9.694;2023-12-20T04:24:23;100421.47;;;4.79;100.00
77147;BME280;66121;52.584;9.694;2023-12-20T04:26:49;100405.16;;;4.83;100.00
77147;BME280;66121;52.584;9.694;2023-12-20T04:29:14;100396.78;;;4.76;100.00
77147;BME280;66121;52.584;9.694;2023-12-20T04:31:39;100403.50;;;4.78;100.00
77147;BME280;66121;52.584;9.694;2023-12-20T04:34:04;100393.88;;;4.84;100.00
77147;BME280;66121;52.584;9.694;2023-12-20T04:36:30;100397.75;;;4.83;100.00
77147;BME280;66121;52.584;9.694;2023-12-20T04:38:55;100393.06;;;4.84;100.00
77147;BME280;66121;52.584;9.694;2023-12-20T04:41:20;100396.97;;;4.83;100.00
77147;BME280;66121;52.584;9.694;2023-12-20T04:43:46;100395.63;;;4.77;100.00
77147;BME280;66121;52.584;9.694;2023-12-20T04:46:11;100391.06;;;4.81;100.00
77147;BME280;66121;52.584;9.694;2023-12-20T04:48:36;100397.28;;;4.81;100.00
77147;BME280;66121;52.584;9.694;2023-12-20T04:51:02;100388.31;;;4.81;100.00
77147;BME280;66121;52.584;9.694;2023-12-20T04:53:27;100397.13;;;4.90;100.00
77147;BME280;66121;52.584;9.694;2023-12-20T04:55:53;100387.69;;;4.87;100.00
77147;BME280;66121;52.584;9.694;2023-12-20T04:58:18;100399.25;;;4.96;100.00
77147;BME280;66121;52.584;9.694;2023-12-20T05:00:44;100383.66;;;4.97;100.00
77147;BME280;66121;52.584;9.694;2023-12-20T05:03:09;100386.13;;;5.02;100.00
77147;BME280;66121;52.584;9.694;2023-12-20T05:05:34;100387.34;;;5.04;100.00
77147;BME280;66121;52.584;9.694;2023-12-20T05:08:00;100388.94;;;5.05;100.00
77147;BME280;66121;52.584;9.694;2023-12-20T05:10:25;100389.81;;;5.09;100.00
77147;BME280;66121;52.584;9.694;2023-12-20T05:12:52;100385.50;;;5.08;100.00
77147;BME280;66121;52.584;9.694;2023-12-20T05:15:17;100383.53;;;5.09;100.00
77147;BME280;66121;52.584;9.694;2023-12-20T05:17:42;100376.16;;;5.09;100.00
77147;BME280;66121;52.584;9.694;2023-12-20T05:20:08;100387.97;;;5.13;100.00
77147;BME280;66121;52.584;9.694;2023-12-20T05:22:33;100335.75;;;4.87;100.00
77147;BME280;66121;52.584;9.694;2023-12-20T05:24:58;100369.28;;;5.15;100.00
77147;BME280;66121;52.584;9.694;2023-12-20T05:27:24;100372.44;;;5.17;100.00
77147;BME280;66121;52.584;9.694;2023-12-20T05:29:50;100358.75;;;5.17;100.00
77147;BME280;66121;52.584;9.694;2023-12-20T05:32:16;100363.00;;;5.15;100.00
77147;BME280;66121;52.584;9.694;2023-12-20T05:34:42;100368.91;;;5.17;100.00
77147;BME280;66121;52.584;9.694;2023-12-20T05:37:07;100366.28;;;5.20;100.00
77147;BME280;66121;52.584;9.694;2023-12-20T05:39:32;100353.72;;;5.19;100.00
77147;BME280;66121;52.584;9.694;2023-12-20T05:41:58;100353.88;;;5.27;100.00
77147;BME280;66121;52.584;9.694;2023-12-20T05:44:23;100375.78;;;5.27;100.00
77147;BME280;66121;52.584;9.694;2023-12-20T05:46:48;100368.00;;;5.29;100.00
77147;BME280;66121;52.584;9.694;2023-12-20T05:49:13;100363.69;;;5.28;100.00
77147;BME280;66121;52.584;9.694;2023-12-20T05:51:39;100357.44;;;5.27;100.00
77147;BME280;66121;52.584;9.694;2023-12-20T05:54:04;100360.97;;;5.28;100.00
77147;BME280;66121;52.584;9.694;2023-12-20T05:56:30;100342.94;;;5.27;100.00
77147;BME280;66121;52.584;9.694;2023-12-20T05:58:55;100341.88;;;5.31;100.00
77147;BME280;66121;52.584;9.694;2023-12-20T06:01:20;100358.47;;;5.38;100.00
77147;BME280;66121;52.584;9.694;2023-12-20T06:03:45;100365.53;;;5.39;100.00
77147;BME280;66121;52.584;9.694;2023-12-20T06:06:11;100356.00;;;5.33;100.00
77147;BME280;66121;52.584;9.694;2023-12-20T06:08:37;100350.53;;;5.33;100.00
77147;BME280;66121;52.584;9.694;2023-12-20T06:11:03;100345.78;;;5.30;100.00
77147;BME280;66121;52.584;9.694;2023-12-20T06:13:28;100342.25;;;5.30;100.00
77147;BME280;66121;52.584;9.694;2023-12-20T06:15:54;100326.09;;;5.25;100.00
77147;BME280;66121;52.584;9.694;2023-12-20T06:18:19;100326.81;;;5.21;100.00
77147;BME280;66121;52.584;9.694;2023-12-20T06:20:45;100319.78;;;5.20;100.00
77147;BME280;66121;52.584;9.694;2023-12-20T06:23:10;100328.19;;;5.31;100.00
77147;BME280;66121;52.584;9.694;2023-12-20T06:25:35;100312.06;;;5.26;100.00
77147;BME280;66121;52.584;9.694;2023-12-20T06:28:01;100314.63;;;5.35;100.00
77147;BME280;66121;52.584;9.694;2023-12-20T06:30:26;100310.75;;;5.36;100.00
77147;BME280;66121;52.584;9.694;2023-12-20T06:32:53;100305.00;;;5.41;100.00
77147;BME280;66121;52.584;9.694;2023-12-20T06:35:18;100299.00;;;5.35;100.00
77147;BME280;66121;52.584;9.694;2023-12-20T06:37:43;100290.00;;;5.35;100.00
77147;BME280;66121;52.584;9.694;2023-12-20T06:40:09;100270.25;;;5.26;100.00
77147;BME280;66121;52.584;9.694;2023-12-20T06:42:35;100294.81;;;5.41;100.00
77147;BME280;66121;52.584;9.694;2023-12-20T06:45:00;100288.56;;;5.41;100.00
77147;BME280;66121;52.584;9.694;2023-12-20T06:47:26;100278.06;;;5.43;100.00
77147;BME280;66121;52.584;9.694;2023-12-20T06:49:51;100276.88;;;5.44;100.00
77147;BME280;66121;52.584;9.694;2023-12-20T06:52:17;100274.81;;;5.37;100.00
77147;BME280;66121;52.584;9.694;2023-12-20T06:54:42;100261.41;;;5.32;100.00
77147;BME280;66121;52.584;9.694;2023-12-20T06:57:07;100270.94;;;5.38;100.00
77147;BME280;66121;52.584;9.694;2023-12-20T06:59:38;100258.31;;;5.34;100.00
77147;BME280;66121;52.584;9.694;2023-12-20T07:02:03;100239.63;;;5.36;100.00
77147;BME280;66121;52.584;9.694;2023-12-20T07:04:30;100233.06;;;5.40;100.00
77147;BME280;66121;52.584;9.694;2023-12-20T07:06:55;100223.69;;;5.41;100.00
77147;BME280;66121;52.584;9.694;2023-12-20T07:09:22;100216.28;;;5.42;100.00
77147;BME280;66121;52.584;9.694;2023-12-20T07:11:48;100218.16;;;5.38;100.00
77147;BME280;66121;52.584;9.694;2023-12-20T07:14:13;100209.16;;;5.37;100.00
77147;BME280;66121;52.584;9.694;2023-12-20T07:16:38;100176.03;;;5.23;100.00
77147;BME280;66121;52.584;9.694;2023-12-20T07:19:04;100193.16;;;5.39;100.00
77147;BME280;66121;52.584;9.694;2023-12-20T07:21:29;100191.13;;;5.36;100.00
77147;BME280;66121;52.584;9.694;2023-12-20T07:23:55;100198.91;;;5.34;100.00
77147;BME280;66121;52.584;9.694;2023-12-20T07:26:20;100198.50;;;5.32;100.00
77147;BME280;66121;52.584;9.694;2023-12-20T07:28:46;100206.50;;;5.41;100.00
77147;BME280;66121;52.584;9.694;2023-12-20T07:31:11;100202.31;;;5.47;100.00
77147;BME280;66121;52.584;9.694;2023-12-20T07:33:36;100182.16;;;5.36;100.00
77147;BME280;66121;52.584;9.694;2023-12-20T07:36:02;100186.25;;;5.45;100.00
77147;BME280;66121;52.584;9.694;2023-12-20T07:38:27;100185.03;;;5.43;100.00
77147;BME280;66121;52.584;9.694;2023-12-20T07:40:52;100175.94;;;5.39;100.00
77147;BME280;66121;52.584;9.694;2023-12-20T07:43:18;100176.03;;;5.42;100.00
77147;BME280;66121;52.584;9.694;2023-12-20T07:45:43;100179.56;;;5.43;100.00
77147;BME280;66121;52.584;9.694;2023-12-20T07:48:08;100167.91;;;5.46;100.00
77147;BME280;66121;52.584;9.694;2023-12-20T07:50:34;100177.25;;;5.45;100.00
77147;BME280;66121;52.584;9.694;2023-12-20T07:53:02;100171.50;;;5.50;100.00
77147;BME280;66121;52.584;9.694;2023-12-20T07:55:28;100171.50;;;5.50;100.00
77147;BME280;66121;52.584;9.694;2023-12-20T07:57:53;100157.88;;;5.53;100.00
77147;BME280;66121;52.584;9.694;2023-12-20T08:00:19;100157.00;;;5.49;100.00
77147;BME280;66121;52.584;9.694;2023-12-20T08:02:44;100150.81;;;5.52;100.00
77147;BME280;66121;52.584;9.694;2023-12-20T08:05:09;100145.78;;;5.54;100.00
77147;BME280;66121;52.584;9.694;2023-12-20T08:07:35;100143.47;;;5.56;100.00
77147;BME280;66121;52.584;9.694;2023-12-20T08:10:00;100121.22;;;5.58;100.00
77147;BME280;66121;52.584;9.694;2023-12-20T08:12:25;100124.25;;;5.53;100.00
77147;BME280;66121;52.584;9.694;2023-12-20T08:14:53;100129.34;;;5.54;100.00
77147;BME280;66121;52.584;9.694;2023-12-20T08:17:18;100114.47;;;5.52;100.00
77147;BME280;66121;52.584;9.694;2023-12-20T08:19:44;100128.25;;;5.59;100.00
77147;BME280;66121;52.584;9.694;2023-12-20T08:22:09;100111.41;;;5.57;100.00
77147;BME280;66121;52.584;9.694;2023-12-20T08:24:34;100115.03;;;5.61;100.00
77147;BME280;66121;52.584;9.694;2023-12-20T08:27:00;100094.28;;;5.60;100.00
77147;BME280;66121;52.584;9.694;2023-12-20T08:29:25;100097.06;;;5.63;100.00
77147;BME280;66121;52.584;9.694;2023-12-20T08:31:54;100092.16;;;5.50;100.00
77147;BME280;66121;52.584;9.694;2023-12-20T08:34:20;100077.03;;;5.56;100.00
77147;BME280;66121;52.584;9.694;2023-12-20T08:36:45;100102.53;;;5.63;100.00
77147;BME280;66121;52.584;9.694;2023-12-20T08:39:10;100081.44;;;5.64;100.00
77147;BME280;66121;52.584;9.694;2023-12-20T08:41:35;100086.91;;;5.64;100.00
77147;BME280;66121;52.584;9.694;2023-12-20T08:44:02;100093.97;;;5.65;100.00
77147;BME280;66121;52.584;9.694;2023-12-20T08:46:27;100083.16;;;5.72;100.00
77147;BME280;66121;52.584;9.694;2023-12-20T08:48:52;100056.00;;;5.63;100.00
77147;BME280;66121;52.584;9.694;2023-12-20T08:51:18;100058.63;;;5.79;100.00
77147;BME280;66121;52.584;9.694;2023-12-20T08:53:44;100078.66;;;5.83;100.00
77147;BME280;66121;52.584;9.694;2023-12-20T08:56:10;100057.84;;;5.78;100.00
77147;BME280;66121;52.584;9.694;2023-12-20T08:58:35;100063.38;;;5.82;100.00
77147;BME280;66121;52.584;9.694;2023-12-20T09:01:01;100040.50;;;5.71;100.00
77147;BME280;66121;52.584;9.694;2023-12-20T09:03:26;100046.13;;;5.78;100.00
77147;BME280;66121;52.584;9.694;2023-12-20T09:05:52;100041.84;;;5.80;100.00
77147;BME280;66121;52.584;9.694;2023-12-20T09:08:17;100034.50;;;5.84;100.00
77147;BME280;66121;52.584;9.694;2023-12-20T09:10:42;100030.94;;;5.84;100.00
77147;BME280;66121;52.584;9.694;2023-12-20T09:13:07;100023.56;;;5.84;100.00
77147;BME280;66121;52.584;9.694;2023-12-20T09:15:33;100025.91;;;5.86;100.00
77147;BME280;66121;52.584;9.694;2023-12-20T09:17:59;100010.66;;;5.85;100.00
77147;BME280;66121;52.584;9.694;2023-12-20T09:20:24;100009.03;;;5.84;100.00
77147;BME280;66121;52.584;9.694;2023-12-20T09:22:50;99995.13;;;5.93;100.00
77147;BME280;66121;52.584;9.694;2023-12-20T09:25:15;100007.31;;;5.95;100.00
77147;BME280;66121;52.584;9.694;2023-12-20T09:27:42;100008.09;;;5.96;100.00
77147;BME280;66121;52.584;9.694;2023-12-20T09:30:08;100000.78;;;6.03;100.00
77147;BME280;66121;52.584;9.694;2023-12-20T09:32:34;99996.44;;;6.02;100.00
77147;BME280;66121;52.584;9.694;2023-12-20T09:34:59;99987.84;;;6.04;100.00
77147;BME280;66121;52.584;9.694;2023-12-20T09:37:28;99981.75;;;6.14;100.00
77147;BME280;66121;52.584;9.694;2023-12-20T09:39:54;99961.59;;;5.99;100.00
77147;BME280;66121;52.584;9.694;2023-12-20T09:42:25;99977.69;;;6.04;100.00
77147;BME280;66121;52.584;9.694;2023-12-20T09:44:54;99963.97;;;6.01;100.00
77147;BME280;66121;52.584;9.694;2023-12-20T09:47:22;99976.81;;;5.97;100.00
77147;BME280;66121;52.584;9.694;2023-12-20T09:49:50;99974.03;;;5.93;100.00
77147;BME280;66121;52.584;9.694;2023-12-20T09:52:15;99967.44;;;5.98;100.00
77147;BME280;66121;52.584;9.694;2023-12-20T09:54:43;99961.97;;;5.98;100.00
77147;BME280;66121;52.584;9.694;2023-12-20T09:57:09;99969.00;;;5.99;100.00
77147;BME280;66121;52.584;9.694;2023-12-20T09:59:35;99961.97;;;5.98;100.00
77147;BME280;66121;52.584;9.694;2023-12-20T10:02:01;99947.00;;;5.92;100.00
77147;BME280;66121;52.584;9.694;2023-12-20T10:04:31;99955.63;;;5.94;100.00
77147;BME280;66121;52.584;9.694;2023-12-20T10:06:56;99956.44;;;5.94;100.00
77147;BME280;66121;52.584;9.694;2023-12-20T10:09:22;99947.88;;;5.96;100.00
77147;BME280;66121;52.584;9.694;2023-12-20T10:11:47;99934.50;;;5.91;100.00
77147;BME280;66121;52.584;9.694;2023-12-20T10:14:13;99955.22;;;5.92;100.00
77147;BME280;66121;52.584;9.694;2023-12-20T10:16:40;99941.19;;;5.93;100.00
77147;BME280;66121;52.584;9.694;2023-12-20T10:19:06;99942.84;;;6.01;100.00
77147;BME280;66121;52.584;9.694;2023-12-20T10:21:31;99939.03;;;6.09;100.00
77147;BME280;66121;52.584;9.694;2023-12-20T10:23:57;99939.50;;;6.15;100.00
77147;BME280;66121;52.584;9.694;2023-12-20T10:26:24;99946.13;;;6.14;100.00
77147;BME280;66121;52.584;9.694;2023-12-20T10:29:09;99943.88;;;6.19;100.00
77147;BME280;66121;52.584;9.694;2023-12-20T10:31:35;99948.53;;;6.19;100.00
77147;BME280;66121;52.584;9.694;2023-12-20T10:34:02;99941.06;;;6.16;100.00
77147;BME280;66121;52.584;9.694;2023-12-20T10:36:33;99937.50;;;6.12;100.00
77147;BME280;66121;52.584;9.694;2023-12-20T10:38:59;99939.91;;;6.17;100.00
77147;BME280;66121;52.584;9.694;2023-12-20T10:41:27;99912.47;;;6.13;100.00
77147;BME280;66121;52.584;9.694;2023-12-20T10:44:12;99927.03;;;6.21;100.00
77147;BME280;66121;52.584;9.694;2023-12-20T10:46:39;99923.47;;;6.17;100.00
77147;BME280;66121;52.584;9.694;2023-12-20T10:49:05;99928.16;;;6.16;100.00
77147;BME280;66121;52.584;9.694;2023-12-20T10:51:33;99924.28;;;6.17;100.00
77147;BME280;66121;52.584;9.694;2023-12-20T10:54:00;99921.91;;;6.16;100.00
77147;BME280;66121;52.584;9.694;2023-12-20T10:56:28;99909.06;;;6.23;100.00
77147;BME280;66121;52.584;9.694;2023-12-20T10:58:57;99907.59;;;6.29;100.00
77147;BME280;66121;52.584;9.694;2023-12-20T11:01:27;99913.56;;;6.38;100.00
77147;BME280;66121;52.584;9.694;2023-12-20T11:03:54;99891.56;;;6.31;100.00
77147;BME280;66121;52.584;9.694;2023-12-20T11:06:43;99891.63;;;6.35;100.00
77147;BME280;66121;52.584;9.694;2023-12-20T11:09:13;99887.34;;;6.37;100.00
77147;BME280;66121;52.584;9.694;2023-12-20T11:12:02;99879.81;;;6.31;100.00
77147;BME280;66121;52.584;9.694;2023-12-20T11:14:43;99863.50;;;6.38;100.00
77147;BME280;66121;52.584;9.694;2023-12-20T11:17:11;99880.69;;;6.38;100.00
77147;BME280;66121;52.584;9.694;2023-12-20T11:22:26;99884.53;;;6.30;100.00
77147;BME280;66121;52.584;9.694;2023-12-20T11:24:52;99899.75;;;6.28;100.00
77147;BME280;66121;52.584;9.694;2023-12-20T11:27:21;99882.41;;;6.17;100.00
77147;BME280;66121;52.584;9.694;2023-12-20T11:29:59;99923.47;;;6.17;100.00
77147;BME280;66121;52.584;9.694;2023-12-20T11:34:55;99910.28;;;5.96;100.00
77147;BME280;66121;52.584;9.694;2023-12-20T11:37:21;99928.63;;;5.92;100.00
77147;BME280;66121;52.584;9.694;2023-12-20T11:39:55;99914.13;;;5.88;100.00
77147;BME280;66121;52.584;9.694;2023-12-20T11:42:21;99897.78;;;5.95;100.00
77147;BME280;66121;52.584;9.694;2023-12-20T11:44:46;99898.25;;;6.01;100.00
77147;BME280;66121;52.584;9.694;2023-12-20T11:47:12;99889.97;;;5.97;100.00
77147;BME280;66121;52.584;9.694;2023-12-20T11:49:38;99906.66;;;6.18;100.00
77147;BME280;66121;52.584;9.694;2023-12-20T11:52:04;99914.66;;;6.30;100.00
77147;BME280;66121;52.584;9.694;2023-12-20T11:54:30;99918.03;;;6.87;100.00
77147;BME280;66121;52.584;9.694;2023-12-20T11:56:55;99900.09;;;6.96;100.00
77147;BME280;66121;52.584;9.694;2023-12-20T11:59:21;99893.72;;;6.85;100.00
77147;BME280;66121;52.584;9.694;2023-12-20T12:01:50;99887.19;;;6.97;100.00
77147;BME280;66121;52.584;9.694;2023-12-20T12:04:16;99859.53;;;6.72;100.00
77147;BME280;66121;52.584;9.694;2023-12-20T12:06:43;99843.28;;;6.53;100.00
77147;BME280;66121;52.584;9.694;2023-12-20T12:09:08;99839.06;;;6.26;100.00
77147;BME280;66121;52.584;9.694;2023-12-20T12:11:34;99831.75;;;6.04;100.00
77147;BME280;66121;52.584;9.694;2023-12-20T12:13:59;99820.66;;;5.90;100.00
77147;BME280;66121;52.584;9.694;2023-12-20T12:16:25;99833.84;;;5.84;100.00
77147;BME280;66121;52.584;9.694;2023-12-20T12:18:57;99835.66;;;5.73;100.00
77147;BME280;66121;52.584;9.694;2023-12-20T12:21:23;99836.03;;;5.71;100.00
77147;BME280;66121;52.584;9.694;2023-12-20T12:23:48;99824.84;;;5.54;100.00
77147;BME280;66121;52.584;9.694;2023-12-20T12:26:14;99844.19;;;5.68;100.00
77147;BME280;66121;52.584;9.694;2023-12-20T12:28:42;99840.81;;;5.78;100.00
77147;BME280;66121;52.584;9.694;2023-12-20T12:31:09;99836.91;;;5.79;100.00
77147;BME280;66121;52.584;9.694;2023-12-20T12:33:38;99828.44;;;5.88;100.00
77147;BME280;66121;52.584;9.694;2023-12-20T12:36:03;99846.41;;;6.18;100.00
77147;BME280;66121;52.584;9.694;2023-12-20T12:38:32;99832.38;;;6.23;100.00
77147;BME280;66121;52.584;9.694;2023-12-20T12:40:57;99828.38;;;6.14;100.00
77147;BME280;66121;52.584;9.694;2023-12-20T12:43:23;99810.50;;;5.90;100.00
77147;BME280;66121;52.584;9.694;2023-12-20T12:45:49;99809.13;;;5.77;100.00
77147;BME280;66121;52.584;9.694;2023-12-20T12:48:14;99834.09;;;6.38;100.00
77147;BME280;66121;52.584;9.694;2023-12-20T12:50:40;99857.50;;;7.09;100.00
77147;BME280;66121;52.584;9.694;2023-12-20T12:53:05;99833.06;;;7.48;100.00